createdAt,value
2023-01-21T00:00:57.913Z,64.67
2023-01-21T00:05:55.140Z,63.73
2023-01-21T00:10:53.244Z,63.88
2023-01-21T00:15:50.523Z,63.71
2023-01-21T00:20:50.789Z,63.66
2023-01-21T00:25:51.142Z,63.52
2023-01-21T00:30:52.083Z,63.68
2023-01-21T00:35:58.447Z,62.89
2023-01-21T00:41:03.199Z,62.40
2023-01-21T00:46:03.638Z,62.91
2023-01-21T00:51:01.224Z,62.63
2023-01-21T00:56:03.403Z,63.11
2023-01-21T01:01:06.263Z,62.61
2023-01-21T01:06:05.983Z,63.28
2023-01-21T01:11:03.494Z,62.70
2023-01-21T01:16:02.126Z,63.10
2023-01-21T01:21:01.737Z,62.47
2023-01-21T01:26:01.362Z,62.65
2023-01-21T01:30:59.956Z,63.23
2023-01-21T01:36:05.905Z,62.39
2023-01-21T01:41:06.694Z,62.80
2023-01-21T01:46:04.015Z,62.44
2023-01-21T01:51:07.004Z,62.64
2023-01-21T01:56:05.463Z,62.61
2023-01-21T02:01:03.358Z,62.68
2023-01-21T02:06:03.513Z,62.81
2023-01-21T02:11:03.532Z,63.10
2023-01-21T02:16:11.915Z,62.96
2023-01-21T02:21:48.230Z,62.40
2023-01-21T02:27:30.729Z,63.07
2023-01-21T02:33:17.885Z,62.44
2023-01-21T02:38:21.430Z,63.39
2023-01-21T02:43:29.626Z,62.98
2023-01-21T02:48:32.793Z,63.18
2023-01-21T02:53:31.501Z,62.94
2023-01-21T02:58:31.772Z,62.96
2023-01-21T03:03:43.701Z,63.45
2023-01-21T03:08:46.446Z,63.34
2023-01-21T03:14:08.891Z,63.00
2023-01-21T03:19:11.086Z,62.69
2023-01-21T03:24:08.617Z,63.60
2023-01-21T03:29:09.811Z,62.45
2023-01-21T03:34:10.752Z,63.11
2023-01-21T03:39:14.767Z,63.51
2023-01-21T03:44:11.650Z,63.57
2023-01-21T03:49:15.577Z,62.95
2023-01-21T03:54:12.893Z,62.40
2023-01-21T03:59:09.653Z,62.84
2023-01-21T04:04:06.501Z,62.69
2023-01-21T04:09:04.548Z,63.03
2023-01-21T04:14:01.388Z,62.63
2023-01-21T04:18:58.159Z,62.01
2023-01-21T04:23:54.919Z,62.40
2023-01-21T04:28:52.419Z,62.59
2023-01-21T04:33:49.249Z,63.00
2023-01-21T04:38:46.008Z,62.90
2023-01-21T04:43:42.762Z,62.93
2023-01-21T04:48:40.241Z,62.99
2023-01-21T04:53:37.000Z,63.20
2023-01-21T04:58:34.300Z,63.51
2023-01-21T05:03:31.121Z,62.95
2023-01-21T05:08:28.647Z,63.54
2023-01-21T05:13:25.499Z,62.88
2023-01-21T05:18:22.380Z,63.23
2023-01-21T05:23:19.223Z,64.03
2023-01-21T05:28:16.773Z,63.65
2023-01-21T05:33:13.615Z,63.49
2023-01-21T05:38:10.430Z,63.54
2023-01-21T05:43:07.266Z,63.35
2023-01-21T05:48:08.475Z,63.54
2023-01-21T05:53:05.302Z,62.87
2023-01-21T05:58:02.207Z,63.16
2023-01-21T06:03:00.353Z,63.10
2023-01-21T06:07:57.986Z,63.11
2023-01-21T06:12:54.929Z,62.92
2023-01-21T06:17:51.930Z,63.16
2023-01-21T06:22:48.759Z,62.98
2023-01-21T06:27:46.849Z,63.16
2023-01-21T06:32:43.845Z,63.29
2023-01-21T06:37:40.643Z,63.07
2023-01-21T06:42:38.563Z,62.61
2023-01-21T06:47:41.498Z,62.36
2023-01-21T06:52:39.832Z,62.15
2023-01-21T06:57:39.581Z,61.27
2023-01-21T07:02:39.518Z,60.62
2023-01-21T07:07:42.115Z,60.94
2023-01-21T07:12:40.065Z,60.17
2023-01-21T07:17:39.533Z,60.73
2023-01-21T07:22:39.573Z,60.88
2023-01-21T07:27:37.943Z,60.53
2023-01-21T07:32:37.348Z,60.50
2023-01-21T07:37:37.125Z,60.05
2023-01-21T07:42:34.665Z,59.42
2023-01-21T07:47:32.841Z,59.54
2023-01-21T07:52:31.941Z,60.34
2023-01-21T07:57:28.865Z,60.13
2023-01-21T08:02:28.275Z,60.21
2023-01-21T08:07:26.134Z,61.52
2023-01-21T08:12:27.253Z,62.11
2023-01-21T08:17:24.328Z,62.14
2023-01-21T08:22:25.242Z,63.03
2023-01-21T08:27:25.085Z,62.92
2023-01-21T08:32:22.077Z,62.63
2023-01-21T08:37:21.637Z,63.36
2023-01-21T08:42:19.296Z,63.53
2023-01-21T08:47:16.487Z,63.86
2023-01-21T08:52:13.456Z,64.06
2023-01-21T08:57:10.945Z,63.57
2023-01-21T09:02:11.501Z,63.35
2023-01-21T09:07:08.796Z,63.61
2023-01-21T09:12:06.616Z,64.36
2023-01-21T09:17:03.858Z,65.11
2023-01-21T09:22:02.729Z,65.27
2023-01-21T09:27:00.508Z,66.50
2023-01-21T09:31:57.723Z,67.18
2023-01-21T09:36:55.053Z,67.22
2023-01-21T09:41:55.360Z,66.29
2023-01-21T09:46:58.381Z,66.51
2023-01-21T09:52:02.909Z,66.71
2023-01-21T09:57:46.059Z,66.28
2023-01-21T10:02:50.413Z,65.63
2023-01-21T10:07:53.980Z,65.62
2023-01-21T10:13:14.307Z,65.55
2023-01-21T10:18:20.152Z,65.14
2023-01-21T10:23:20.638Z,65.52
2023-01-21T10:28:23.578Z,65.55
2023-01-21T10:33:23.425Z,66.25
2023-01-21T10:38:30.041Z,66.71
2023-01-21T10:43:40.783Z,67.03
2023-01-21T10:48:45.682Z,67.15
2023-01-21T10:53:50.485Z,67.04
2023-01-21T10:58:52.485Z,67.62
2023-01-21T11:03:54.799Z,67.78
2023-01-21T11:08:57.070Z,67.96
2023-01-21T11:13:58.778Z,67.49
2023-01-21T11:18:56.034Z,66.22
2023-01-21T11:23:54.327Z,65.33
2023-01-21T11:29:06.990Z,63.67
2023-01-21T11:34:05.562Z,63.19
2023-01-21T11:39:04.609Z,62.36
2023-01-21T11:44:16.198Z,63.08
2023-01-21T11:49:29.759Z,63.87
2023-01-21T11:54:26.547Z,64.36
2023-01-21T11:59:27.979Z,64.52
2023-01-21T12:04:26.122Z,64.48
2023-01-21T12:09:22.965Z,65.04
2023-01-21T12:14:27.936Z,63.93
2023-01-21T12:19:44.589Z,63.80
2023-01-21T12:25:03.692Z,63.89
2023-01-21T12:30:11.801Z,63.46
2023-01-21T12:35:13.673Z,63.46
2023-01-21T12:40:16.458Z,63.40
2023-01-21T12:45:19.275Z,63.69
2023-01-21T12:50:26.414Z,64.12
2023-01-21T12:55:30.404Z,64.29
2023-01-21T13:00:33.642Z,64.98
2023-01-21T13:05:38.396Z,64.95
2023-01-21T13:10:45.211Z,64.88
2023-01-21T13:15:48.343Z,64.29
2023-01-21T13:20:57.394Z,63.90
2023-01-21T13:26:01.549Z,63.33
2023-01-21T13:31:05.235Z,63.01
2023-01-21T13:36:24.048Z,62.55
2023-01-21T13:41:45.069Z,62.97
2023-01-21T13:47:02.698Z,62.55
2023-01-21T13:52:23.140Z,61.97
2023-01-21T13:58:02.633Z,61.87
2023-01-21T14:03:09.863Z,61.60
2023-01-21T14:08:13.193Z,62.26
2023-01-21T14:13:54.006Z,62.74
2023-01-21T14:19:13.189Z,62.84
2023-01-21T14:24:32.199Z,62.79
2023-01-21T14:29:35.293Z,62.73
2023-01-21T14:34:43.224Z,62.15
2023-01-21T14:39:51.464Z,61.69
2023-01-21T14:45:03.225Z,61.36
2023-01-21T14:50:00.419Z,61.27
2023-01-21T14:55:00.298Z,61.13
2023-01-21T15:00:10.677Z,61.18
2023-01-21T15:05:19.460Z,61.38
2023-01-21T15:10:24.425Z,61.80
2023-01-21T15:15:30.966Z,62.49
2023-01-21T15:20:49.635Z,63.35
2023-01-21T15:26:16.742Z,64.34
2023-01-21T15:31:41.522Z,65.43
2023-01-21T15:36:46.455Z,66.10
2023-01-21T15:41:56.367Z,65.75
2023-01-21T15:47:02.701Z,65.13
2023-01-21T15:52:13.491Z,64.76
2023-01-21T15:57:25.198Z,64.53
2023-01-21T16:02:24.898Z,64.09
2023-01-21T16:07:32.871Z,63.99
2023-01-21T16:12:42.849Z,63.47
2023-01-21T16:17:57.117Z,63.46
2023-01-21T16:22:59.163Z,63.99
2023-01-21T16:27:56.922Z,64.56
2023-01-21T16:33:11.471Z,65.10
2023-01-21T16:38:12.903Z,65.98
2023-01-21T16:43:25.149Z,67.18
2023-01-21T16:48:27.888Z,68.22
2023-01-21T16:53:25.093Z,68.71
2023-01-21T16:58:28.981Z,69.51
2023-01-21T17:03:33.842Z,69.89
2023-01-21T17:08:31.077Z,69.68
2023-01-21T17:13:32.134Z,69.20
2023-01-21T17:18:33.654Z,69.08
2023-01-21T17:23:34.170Z,69.44
2023-01-21T17:28:37.195Z,69.83
2023-01-21T17:33:35.232Z,69.89
2023-01-21T17:38:38.921Z,70.13
2023-01-21T17:43:38.685Z,70.59
2023-01-21T17:48:38.978Z,70.86
2023-01-21T17:53:40.636Z,70.90
2023-01-21T17:58:52.085Z,71.67
2023-01-21T18:03:50.043Z,71.98
2023-01-21T18:08:46.872Z,71.50
2023-01-21T18:13:44.166Z,70.66
2023-01-21T18:18:42.134Z,71.03
2023-01-21T18:23:39.142Z,71.47
2023-01-21T18:28:36.122Z,71.50
2023-01-21T18:33:33.028Z,72.05
2023-01-21T18:38:33.615Z,72.75
2023-01-21T18:43:30.520Z,72.85
2023-01-21T18:48:29.428Z,72.84
2023-01-21T18:53:29.159Z,73.01
2023-01-21T18:58:29.741Z,73.25
2023-01-21T19:03:30.438Z,73.16
2023-01-21T19:08:28.448Z,73.18
2023-01-21T19:13:27.390Z,73.22
2023-01-21T19:18:26.398Z,72.99
2023-01-21T19:23:24.056Z,73.22
2023-01-21T19:28:25.760Z,73.01
2023-01-21T19:33:26.248Z,72.70
2023-01-21T19:38:25.864Z,72.48
2023-01-21T19:43:24.128Z,71.79
2023-01-21T19:48:22.123Z,72.33
2023-01-21T19:53:21.139Z,72.44
2023-01-21T19:58:20.841Z,72.32
2023-01-21T20:03:19.665Z,72.23
2023-01-21T20:08:21.400Z,72.15
2023-01-21T20:13:18.912Z,71.49
2023-01-21T20:18:20.070Z,71.28
2023-01-21T20:23:17.710Z,70.91
2023-01-21T20:28:18.813Z,69.99
2023-01-21T20:33:23.320Z,68.99
2023-01-21T20:38:28.074Z,68.59
2023-01-21T20:43:26.520Z,68.44
2023-01-21T20:48:27.954Z,68.00
2023-01-21T20:53:27.969Z,68.19
2023-01-21T20:58:30.964Z,68.04
2023-01-21T21:03:29.712Z,67.87
2023-01-21T21:08:27.776Z,67.39
2023-01-21T21:13:25.613Z,67.06
2023-01-21T21:18:29.351Z,66.70
2023-01-21T21:23:26.283Z,65.93
2023-01-21T21:28:23.336Z,65.41
2023-01-21T21:33:22.421Z,64.60
2023-01-21T21:38:21.456Z,64.47
2023-01-21T21:43:38.589Z,64.72
2023-01-21T21:48:38.942Z,64.57
2023-01-21T21:53:36.100Z,64.60
2023-01-21T21:58:33.069Z,64.49
2023-01-21T22:03:30.826Z,64.25
2023-01-21T22:08:28.871Z,63.52
2023-01-21T22:13:25.675Z,62.41
2023-01-21T22:18:22.706Z,61.92
2023-01-21T22:23:19.479Z,61.71
2023-01-21T22:28:16.963Z,60.61
2023-01-21T22:33:14.802Z,60.50
2023-01-21T22:38:11.626Z,60.48
2023-01-21T22:43:08.915Z,61.17
2023-01-21T22:48:06.627Z,61.59
2023-01-21T22:53:03.648Z,61.64
2023-01-21T22:58:00.444Z,61.70
2023-01-21T23:02:58.521Z,61.89
2023-01-21T23:07:55.972Z,61.83
2023-01-21T23:12:53.019Z,61.35
2023-01-21T23:17:50.711Z,61.92
2023-01-21T23:22:47.521Z,62.06
2023-01-21T23:27:45.514Z,62.40
2023-01-21T23:32:42.641Z,62.30
2023-01-21T23:37:39.647Z,62.55
2023-01-21T23:42:36.484Z,62.59
2023-01-21T23:47:33.934Z,62.68
2023-01-21T23:52:30.746Z,62.86
2023-01-21T23:57:27.633Z,63.05
